Time;durP1;ratioP1;P1;durP2;ratioP2;P2;SDS_P1;SDS_P2;PMS_P1;PMS_P2;Temp;Humidity;BMP_temperature;BMP_pressure;BME280_temperature;BME280_humidity;BME280_pressure;Samples;Min_cycle;Max_cycle;Signal;HPM_P1;HPM_P2
2022/04/18 00:02:21;;;;;;;8.53;4.53;;;2.10;99.90;;;;;;5070531;28;20029;-84
2022/04/18 00:04:47;;;;;;;9.57;5.40;;;2.00;99.90;;;;;;5052233;28;20385;-84
2022/04/18 00:07:13;;;;;;;8.40;5.70;;;2.00;99.90;;;;;;5070845;28;20036;-84
2022/04/18 00:09:38;;;;;;;10.23;6.17;;;2.00;99.90;;;;;;5070858;28;20069;-84
2022/04/18 00:12:05;;;;;;;12.63;6.13;;;2.00;99.90;;;;;;5053337;28;20036;-84
2022/04/18 00:14:30;;;;;;;11.40;6.70;;;1.90;99.90;;;;;;5050876;28;20104;-84
2022/04/18 00:16:57;;;;;;;12.03;6.60;;;1.90;99.90;;;;;;5050916;28;20124;-84
2022/04/18 00:19:23;;;;;;;10.50;6.80;;;2.00;99.90;;;;;;5050717;28;20039;-84
2022/04/18 00:21:50;;;;;;;13.17;6.67;;;2.00;99.90;;;;;;5050417;28;20551;-84
2022/04/18 00:24:17;;;;;;;12.47;7.37;;;2.00;99.90;;;;;;5066820;28;20025;-84
2022/04/18 00:26:43;;;;;;;10.53;6.90;;;2.00;99.90;;;;;;5070482;28;20058;-84
2022/04/18 00:29:09;;;;;;;10.63;6.40;;;2.00;99.90;;;;;;5057796;28;20040;-84
2022/04/18 00:31:36;;;;;;;8.77;5.63;;;1.90;99.90;;;;;;5048679;28;20107;-84
2022/04/18 00:34:02;;;;;;;9.80;6.67;;;1.90;99.90;;;;;;5052608;28;20107;-84
2022/04/18 00:36:27;;;;;;;9.33;6.67;;;1.90;99.90;;;;;;5070814;28;20112;-84
2022/04/18 00:38:53;;;;;;;12.27;6.10;;;1.80;99.90;;;;;;5061763;28;20029;-84
2022/04/18 00:41:18;;;;;;;10.80;6.67;;;1.80;99.90;;;;;;5050634;28;20035;-84
2022/04/18 00:43:46;;;;;;;10.47;6.33;;;1.80;99.90;;;;;;5050664;28;20024;-84
2022/04/18 00:46:14;;;;;;;8.37;5.97;;;1.70;99.90;;;;;;5050889;28;20086;-84
2022/04/18 00:48:40;;;;;;;10.70;6.50;;;1.60;99.90;;;;;;5064718;28;20021;-84
2022/04/18 00:51:09;;;;;;;9.83;6.77;;;1.60;99.90;;;;;;5054089;28;20032;-83
2022/04/18 00:53:36;;;;;;;11.33;7.17;;;1.50;99.90;;;;;;5036676;28;20545;-84
2022/04/18 00:56:03;;;;;;;12.17;8.23;;;1.50;99.90;;;;;;5054425;28;20112;-84
2022/04/18 00:58:28;;;;;;;13.57;7.37;;;1.50;99.90;;;;;;5058055;28;20039;-84
2022/04/18 01:00:54;;;;;;;12.13;7.30;;;1.50;99.90;;;;;;5073538;28;20493;-84
2022/04/18 01:03:20;;;;;;;10.33;6.60;;;1.50;99.90;;;;;;5073609;28;20036;-84
2022/04/18 01:05:47;;;;;;;9.73;6.43;;;1.40;99.90;;;;;;5058992;28;20582;-84
2022/04/18 01:08:13;;;;;;;13.60;8.93;;;1.40;99.90;;;;;;5056147;28;20033;-84
2022/04/18 01:10:39;;;;;;;13.67;7.27;;;1.40;99.90;;;;;;5074223;28;20113;-84
2022/04/18 01:13:04;;;;;;;13.13;7.30;;;1.30;99.90;;;;;;5056367;28;20074;-84
2022/04/18 01:15:30;;;;;;;12.03;8.13;;;1.30;99.90;;;;;;5074189;28;20017;-84
2022/04/18 01:17:56;;;;;;;13.33;8.70;;;1.30;99.90;;;;;;5074597;28;20051;-84
2022/04/18 01:20:22;;;;;;;13.97;8.87;;;1.30;99.90;;;;;;5061878;28;20052;-84
2022/04/18 01:22:52;;;;;;;12.90;9.03;;;1.30;99.90;;;;;;5074062;28;20033;-84
2022/04/18 01:30:54;;;;;;;11.77;8.60;;;1.40;99.90;;;;;;5074171;28;20036;-84
2022/04/18 01:33:21;;;;;;;13.07;7.67;;;1.40;99.90;;;;;;5074319;28;20017;-84
2022/04/18 01:35:46;;;;;;;12.37;7.70;;;1.30;99.90;;;;;;5074058;28;20097;-84
2022/04/18 01:38:12;;;;;;;10.63;6.03;;;1.20;99.90;;;;;;5060136;28;20151;-84
2022/04/18 01:40:38;;;;;;;9.83;6.90;;;1.20;99.90;;;;;;5074499;28;20380;-85
2022/04/18 01:43:05;;;;;;;10.00;7.13;;;1.10;99.90;;;;;;5073850;28;20020;-84
2022/04/18 01:45:30;;;;;;;10.90;6.97;;;1.00;99.90;;;;;;5074152;28;20028;-84
2022/04/18 01:47:56;;;;;;;12.13;7.87;;;1.00;99.90;;;;;;5084970;28;20088;-84
2022/04/18 01:50:21;;;;;;;10.60;7.73;;;1.00;99.90;;;;;;5087912;28;20035;-84
2022/04/18 01:52:47;;;;;;;11.60;8.10;;;1.00;99.90;;;;;;5092653;28;20024;-84
2022/04/18 01:55:12;;;;;;;12.40;7.90;;;1.00;99.90;;;;;;5090835;28;20022;-84
2022/04/18 01:57:38;;;;;;;12.23;8.40;;;1.00;99.90;;;;;;5093259;28;20032;-84
2022/04/18 02:00:04;;;;;;;11.03;7.87;;;1.00;99.90;;;;;;5093958;28;20050;-84
2022/04/18 02:02:30;;;;;;;11.57;7.70;;;0.90;99.90;;;;;;5093964;28;20047;-84
2022/04/18 02:04:55;;;;;;;11.07;7.47;;;0.90;99.90;;;;;;5093871;28;20500;-84
2022/04/18 02:07:21;;;;;;;10.07;7.20;;;0.90;99.90;;;;;;5093443;28;20022;-84
2022/04/18 02:09:47;;;;;;;13.57;7.20;;;0.80;99.90;;;;;;5093937;28;20073;-84
2022/04/18 02:12:13;;;;;;;11.13;8.10;;;0.80;99.90;;;;;;5092339;28;20471;-84
2022/04/18 02:14:38;;;;;;;11.20;8.13;;;0.80;99.90;;;;;;5093115;28;20024;-84
2022/04/18 02:17:04;;;;;;;10.23;7.30;;;0.80;99.90;;;;;;5093222;28;20085;-84
2022/04/18 02:19:29;;;;;;;16.57;8.30;;;0.70;99.90;;;;;;5093823;28;20028;-83
2022/04/18 02:21:55;;;;;;;10.27;6.63;;;0.70;99.90;;;;;;5093474;28;20032;-84
2022/04/18 02:24:21;;;;;;;9.40;7.30;;;0.70;99.90;;;;;;5092262;28;20028;-83
2022/04/18 02:26:46;;;;;;;9.57;7.00;;;0.70;99.90;;;;;;5092153;28;20032;-84
2022/04/18 02:29:12;;;;;;;13.00;8.23;;;0.80;99.90;;;;;;5092351;28;20024;-84
2022/04/18 02:32:47;;;;;;;10.83;7.27;;;0.80;99.90;;;;;;5093455;28;20058;-84
2022/04/18 02:34:23;;;;;;;10.52;7.82;;;0.80;99.90;;;;;;5093009;28;20472;-84
2022/04/18 02:36:49;;;;;;;12.00;8.40;;;0.80;99.90;;;;;;5092756;28;20047;-84
2022/04/18 02:39:14;;;;;;;9.50;6.70;;;0.80;99.90;;;;;;5093037;28;20089;-84
2022/04/18 02:41:40;;;;;;;10.90;7.30;;;0.80;99.90;;;;;;5093086;28;20030;-84
2022/04/18 02:44:06;;;;;;;8.63;6.73;;;0.80;99.90;;;;;;5092911;28;20036;-84
2022/04/18 02:46:31;;;;;;;13.83;7.47;;;0.80;99.90;;;;;;5077518;28;20052;-84
2022/04/18 02:48:57;;;;;;;7.93;5.93;;;0.70;99.90;;;;;;5070861;28;20110;-84
2022/04/18 02:51:27;;;;;;;9.87;6.37;;;0.60;99.90;;;;;;5072636;28;20020;-84
2022/04/18 02:53:53;;;;;;;10.13;6.30;;;0.50;99.90;;;;;;5072406;28;20025;-84
2022/04/18 02:56:19;;;;;;;12.23;6.90;;;0.50;99.90;;;;;;5063280;28;20036;-84
2022/04/18 02:58:45;;;;;;;10.40;6.70;;;0.50;99.90;;;;;;5052585;28;20025;-84
2022/04/18 03:01:11;;;;;;;13.23;7.27;;;0.50;99.90;;;;;;5052261;28;20434;-84
2022/04/18 03:03:36;;;;;;;10.83;7.20;;;0.50;99.90;;;;;;5052359;28;20493;-84
2022/04/18 03:06:02;;;;;;;11.10;7.53;;;0.50;99.90;;;;;;5052379;28;20040;-84
2022/04/18 03:08:27;;;;;;;11.70;7.20;;;0.50;99.90;;;;;;5051809;28;20039;-84
2022/04/18 03:11:05;;;;;;;11.90;7.80;;;0.40;99.90;;;;;;5033971;28;20025;-84
2022/04/18 03:13:44;;;;;;;9.20;6.10;;;0.40;99.90;;;;;;5052325;28;20370;-84
2022/04/18 03:16:11;;;;;;;9.47;5.80;;;0.40;99.90;;;;;;5052428;28;20017;-84
2022/04/18 03:18:36;;;;;;;10.57;5.80;;;0.30;99.90;;;;;;5052103;28;20048;-84
2022/04/18 03:21:03;;;;;;;12.47;6.90;;;0.30;99.90;;;;;;5052077;28;20029;-84
2022/04/18 03:23:29;;;;;;;12.43;6.10;;;0.20;99.90;;;;;;5033962;28;20123;-84
2022/04/18 03:25:54;;;;;;;10.43;6.20;;;0.20;99.90;;;;;;5058702;28;20166;-84
2022/04/18 03:28:20;;;;;;;9.20;5.83;;;0.20;99.90;;;;;;5071663;28;20024;-84
2022/04/18 03:30:46;;;;;;;7.67;6.00;;;0.10;99.90;;;;;;5070699;28;20495;-84
2022/04/18 03:33:11;;;;;;;12.43;6.83;;;0.10;99.90;;;;;;5072120;28;20702;-84
2022/04/18 03:35:37;;;;;;;11.77;6.83;;;0.10;99.90;;;;;;5057689;28;20036;-84
2022/04/18 03:40:47;;;;;;;9.80;6.57;;;0.10;99.90;;;;;;5071714;28;20158;-84
2022/04/18 03:43:12;;;;;;;8.93;6.13;;;0.10;99.90;;;;;;5071910;28;20095;-84
2022/04/18 03:45:38;;;;;;;11.00;6.23;;;0.10;99.90;;;;;;5047115;28;20056;-84
2022/04/18 03:48:04;;;;;;;12.43;6.80;;;0.10;99.90;;;;;;5061532;28;20090;-83
2022/04/18 03:50:30;;;;;;;9.13;6.50;;;0.10;99.90;;;;;;5071035;28;20017;-84
2022/04/18 03:52:55;;;;;;;9.90;6.43;;;0.10;99.90;;;;;;5053387;28;20029;-84
2022/04/18 03:55:21;;;;;;;9.43;5.70;;;0.10;99.90;;;;;;5070587;28;20100;-84
2022/04/18 03:57:46;;;;;;;8.53;5.53;;;0.10;99.90;;;;;;5053243;28;20029;-84
2022/04/18 04:00:13;;;;;;;8.57;6.00;;;0.20;99.90;;;;;;5071079;28;20028;-84
2022/04/18 04:02:39;;;;;;;10.83;6.70;;;0.20;99.90;;;;;;5070967;28;20086;-84
2022/04/18 04:05:04;;;;;;;10.70;6.50;;;0.10;99.90;;;;;;5071246;28;20482;-84
2022/04/18 04:07:30;;;;;;;12.37;6.83;;;0.10;99.90;;;;;;5071827;28;20086;-84
2022/04/18 04:09:56;;;;;;;9.63;6.70;;;0.10;99.90;;;;;;5071706;28;20086;-84
2022/04/18 04:12:25;;;;;;;14.17;7.00;;;0.10;99.90;;;;;;5071445;28;20052;-84
2022/04/18 04:14:54;;;;;;;11.13;6.63;;;0.00;99.90;;;;;;5070861;28;20046;-84
2022/04/18 04:17:22;;;;;;;8.60;5.97;;;0.00;99.90;;;;;;5071061;28;20031;-84
2022/04/18 04:19:48;;;;;;;10.93;6.43;;;0.00;99.90;;;;;;5071320;28;20551;-84
2022/04/18 04:22:14;;;;;;;11.23;6.50;;;0.00;99.90;;;;;;5075042;28;20117;-83
2022/04/18 04:24:39;;;;;;;11.90;6.53;;;0.00;99.90;;;;;;5074562;28;20039;-83
2022/04/18 04:27:05;;;;;;;17.90;7.00;;;0.00;99.90;;;;;;5071935;28;20032;-84
2022/04/18 04:29:31;;;;;;;14.20;7.00;;;0.00;99.90;;;;;;5074870;28;20028;-84
2022/04/18 04:31:57;;;;;;;11.47;6.30;;;0.00;99.90;;;;;;5074875;28;20029;-83
2022/04/18 04:34:23;;;;;;;10.60;6.33;;;0.00;99.90;;;;;;5074751;28;20028;-84
2022/04/18 04:36:49;;;;;;;12.17;6.60;;;0.10;99.90;;;;;;5074536;28;20059;-84
2022/04/18 04:39:14;;;;;;;13.00;6.47;;;0.10;99.90;;;;;;5057211;28;20041;-83
2022/04/18 04:41:40;;;;;;;11.73;6.67;;;0.10;99.90;;;;;;5074745;28;20033;-83
2022/04/18 04:44:06;;;;;;;9.73;6.37;;;0.10;99.90;;;;;;5074734;28;20025;-83
2022/04/18 04:46:33;;;;;;;9.77;5.83;;;0.10;99.90;;;;;;5059248;28;20383;-84
2022/04/18 04:48:58;;;;;;;10.90;6.80;;;0.10;99.90;;;;;;5069558;28;20037;-83
2022/04/18 04:51:24;;;;;;;10.23;6.30;;;0.10;99.90;;;;;;5070699;28;20051;-83
2022/04/18 04:53:50;;;;;;;10.23;6.97;;;0.10;99.90;;;;;;5070902;28;20027;-83
2022/04/18 04:56:24;;;;;;;9.83;6.23;;;0.10;99.90;;;;;;5070861;28;20029;-84
2022/04/18 04:58:50;;;;;;;11.90;6.80;;;0.20;99.90;;;;;;5059948;28;20032;-84
2022/04/18 05:01:16;;;;;;;11.70;6.87;;;0.20;99.90;;;;;;5053422;28;20032;-84
2022/04/18 05:03:41;;;;;;;9.43;6.10;;;0.20;99.90;;;;;;5046241;28;20040;-84
2022/04/18 05:06:07;;;;;;;9.67;6.67;;;0.30;99.90;;;;;;5063513;28;20029;-84
2022/04/18 05:08:33;;;;;;;9.07;6.40;;;0.30;99.90;;;;;;5054490;28;20094;-83
2022/04/18 05:11:00;;;;;;;11.03;6.87;;;0.30;99.90;;;;;;5071244;28;20482;-84
2022/04/18 05:13:27;;;;;;;10.13;6.33;;;0.30;99.90;;;;;;5062180;28;20056;-84
2022/04/18 05:15:52;;;;;;;11.50;5.97;;;0.40;99.90;;;;;;5063860;28;20024;-84
2022/04/18 05:18:18;;;;;;;9.63;6.07;;;0.50;99.90;;;;;;5063691;28;20029;-84
2022/04/18 05:20:46;;;;;;;9.60;6.83;;;0.50;99.90;;;;;;5055994;28;20074;-84
2022/04/18 05:23:15;;;;;;;12.83;7.60;;;0.60;99.90;;;;;;5047887;28;20032;-84
2022/04/18 05:25:41;;;;;;;11.50;7.00;;;0.60;99.90;;;;;;5068037;28;20024;-84
2022/04/18 05:28:06;;;;;;;10.37;6.60;;;0.70;99.90;;;;;;5064143;28;20088;-84
2022/04/18 05:30:32;;;;;;;11.50;7.10;;;0.70;99.90;;;;;;5048941;28;20025;-84
2022/04/18 05:32:57;;;;;;;10.27;7.87;;;0.80;99.90;;;;;;5063899;28;20112;-84
2022/04/18 05:35:23;;;;;;;12.80;7.50;;;0.90;99.90;;;;;;5053612;28;20496;-84
2022/04/18 05:37:49;;;;;;;9.97;6.97;;;1.00;99.90;;;;;;5055443;28;20516;-84
2022/04/18 05:40:15;;;;;;;10.17;8.13;;;1.20;99.90;;;;;;5073305;28;20716;-84
2022/04/18 05:42:40;;;;;;;10.00;7.93;;;1.30;99.90;;;;;;5064929;28;20052;-84
2022/04/18 05:45:09;;;;;;;10.30;7.73;;;1.40;99.90;;;;;;5066074;28;20106;-84
2022/04/18 05:47:35;;;;;;;9.80;7.57;;;1.60;99.90;;;;;;5072598;28;20071;-84
2022/04/18 05:50:00;;;;;;;9.40;7.50;;;1.80;99.90;;;;;;5063769;28;20029;-84
2022/04/18 05:52:26;;;;;;;12.17;7.20;;;1.90;99.90;;;;;;5050249;28;20147;-84
2022/04/18 05:54:51;;;;;;;10.60;7.37;;;2.20;99.90;;;;;;5063658;28;20031;-84
2022/04/18 05:57:17;;;;;;;15.20;9.93;;;2.40;99.90;;;;;;5049888;28;20029;-82
2022/04/18 05:59:43;;;;;;;13.43;8.50;;;2.50;99.90;;;;;;5054453;28;20056;-82
2022/04/18 06:02:08;;;;;;;13.03;7.93;;;2.60;99.90;;;;;;5054364;28;20029;-82
2022/04/18 06:04:34;;;;;;;9.23;7.03;;;2.90;99.90;;;;;;5054756;28;20028;-82
2022/04/18 06:06:59;;;;;;;10.90;7.50;;;3.20;99.90;;;;;;5040003;28;20480;-79
2022/04/18 06:09:25;;;;;;;9.87;6.33;;;3.30;99.90;;;;;;5060377;28;20043;-79
2022/04/18 06:11:51;;;;;;;9.70;7.97;;;3.40;99.90;;;;;;5073682;28;20123;-77
2022/04/18 06:14:16;;;;;;;15.07;10.03;;;3.60;99.90;;;;;;5063238;28;20068;-77
2022/04/18 06:16:42;;;;;;;15.33;8.60;;;3.70;99.90;;;;;;5055017;28;20039;-77
2022/04/18 06:19:08;;;;;;;8.43;6.47;;;3.90;99.90;;;;;;5054545;28;20033;-76
2022/04/18 06:21:33;;;;;;;8.40;6.07;;;4.10;99.90;;;;;;5053884;28;20372;-76
2022/04/18 06:23:59;;;;;;;9.23;5.73;;;4.40;99.90;;;;;;5053728;28;20816;-81
2022/04/18 06:26:24;;;;;;;14.10;10.77;;;4.50;99.90;;;;;;5050886;28;20032;-81
2022/04/18 06:28:51;;;;;;;10.90;7.23;;;4.60;99.90;;;;;;5051726;28;20063;-81
2022/04/18 06:31:17;;;;;;;14.43;9.67;;;4.60;99.90;;;;;;5052382;28;20060;-82
2022/04/18 06:33:42;;;;;;;9.50;6.93;;;4.70;99.90;;;;;;5053419;28;20064;-79
2022/04/18 06:36:08;;;;;;;12.77;8.70;;;4.80;99.90;;;;;;5057397;28;20025;-78
2022/04/18 06:38:33;;;;;;;9.97;7.20;;;5.10;99.90;;;;;;5037645;28;20024;-81
2022/04/18 06:40:59;;;;;;;9.20;6.87;;;5.30;99.90;;;;;;5061681;28;20095;-81
2022/04/18 06:43:25;;;;;;;10.83;7.00;;;5.30;99.90;;;;;;5069430;28;20123;-82
2022/04/18 06:45:51;;;;;;;13.27;9.00;;;5.50;99.90;;;;;;5056983;28;20043;-82
2022/04/18 06:48:16;;;;;;;13.23;8.67;;;5.70;99.90;;;;;;5055457;28;20408;-81
2022/04/18 06:50:42;;;;;;;9.77;6.07;;;5.90;99.90;;;;;;5053858;28;20021;-81
2022/04/18 06:53:25;;;;;;;10.07;6.07;;;6.00;99.90;;;;;;5054678;28;20033;-81
2022/04/18 06:58:36;;;;;;;8.83;6.33;;;6.30;99.90;;;;;;5069265;28;20043;-77
2022/04/18 07:01:01;;;;;;;8.13;5.50;;;6.50;99.90;;;;;;5067021;28;20274;-81
2022/04/18 07:03:27;;;;;;;14.20;10.20;;;6.50;99.90;;;;;;5055364;28;20115;-81
2022/04/18 07:05:53;;;;;;;12.93;9.37;;;6.70;99.90;;;;;;5056675;28;20036;-81
2022/04/18 07:08:18;;;;;;;16.13;11.23;;;6.80;99.90;;;;;;5058838;28;20068;-81
2022/04/18 07:10:44;;;;;;;7.03;4.63;;;6.90;99.90;;;;;;5041653;28;20056;-80
2022/04/18 07:13:10;;;;;;;17.97;12.33;;;7.10;99.90;;;;;;5055172;28;20107;-80
2022/04/18 07:15:35;;;;;;;8.60;5.53;;;7.30;99.90;;;;;;5057580;28;20040;-80
2022/04/18 07:18:01;;;;;;;13.03;6.93;;;7.60;99.90;;;;;;5054786;28;20056;-81
2022/04/18 07:20:28;;;;;;;6.43;4.00;;;7.90;99.90;;;;;;5058955;28;20031;-77
2022/04/18 07:22:54;;;;;;;7.23;5.43;;;7.90;99.90;;;;;;5058167;28;20029;-81
2022/04/18 07:25:20;;;;;;;6.80;4.20;;;8.20;99.90;;;;;;5054419;28;20129;-81
2022/04/18 07:27:45;;;;;;;7.63;3.67;;;8.30;99.90;;;;;;5055546;28;20552;-80
2022/04/18 07:30:11;;;;;;;5.03;3.07;;;8.30;99.90;;;;;;5056250;28;20025;-81
2022/04/18 07:32:41;;;;;;;4.93;2.77;;;8.60;99.90;;;;;;5047879;28;20029;-79
2022/04/18 07:35:08;;;;;;;4.23;3.00;;;8.70;99.90;;;;;;5073713;28;20365;-79
2022/04/18 07:37:35;;;;;;;5.33;3.50;;;8.90;99.90;;;;;;5062608;28;20024;-77
2022/04/18 07:40:00;;;;;;;3.73;2.57;;;9.10;99.90;;;;;;5051278;28;20115;-79
2022/04/18 07:42:26;;;;;;;5.20;3.03;;;9.20;99.90;;;;;;5069294;28;20032;-77
2022/04/18 07:44:52;;;;;;;6.17;2.83;;;9.00;99.90;;;;;;5056111;28;20377;-80
2022/04/18 07:47:17;;;;;;;4.23;2.87;;;9.20;99.90;;;;;;5053114;28;20053;-79
2022/04/18 07:49:43;;;;;;;6.40;3.23;;;9.20;99.90;;;;;;5054222;28;20498;-81
2022/04/18 07:52:09;;;;;;;5.37;2.77;;;9.20;99.90;;;;;;5057882;28;20035;-80
2022/04/18 07:54:35;;;;;;;5.63;2.70;;;9.20;99.90;;;;;;5057986;28;20777;-81
2022/04/18 07:57:01;;;;;;;6.67;3.17;;;9.10;99.90;;;;;;5061132;28;20404;-80
2022/04/18 07:59:26;;;;;;;57.90;31.90;;;9.20;99.90;;;;;;5052532;28;20044;-81
2022/04/18 08:01:52;;;;;;;74.17;37.23;;;9.50;99.90;;;;;;5055407;28;20374;-77
2022/04/18 08:04:18;;;;;;;15.87;9.10;;;9.60;99.90;;;;;;5061255;28;20059;-79
2022/04/18 08:06:44;;;;;;;102.13;60.17;;;9.50;99.90;;;;;;5060644;28;20041;-77
2022/04/18 08:09:10;;;;;;;11.80;6.00;;;9.70;99.90;;;;;;5038601;28;20047;-77
2022/04/18 08:11:35;;;;;;;7.00;3.53;;;9.80;99.90;;;;;;5060460;28;20026;-78
2022/04/18 08:14:01;;;;;;;9.43;3.43;;;9.90;99.90;;;;;;5057317;28;20047;-77
2022/04/18 08:16:27;;;;;;;5.37;3.20;;;9.90;99.90;;;;;;5053827;28;20036;-77
2022/04/18 08:18:53;;;;;;;6.07;2.83;;;10.00;99.90;;;;;;5058034;28;20385;-78
2022/04/18 08:21:19;;;;;;;5.03;2.90;;;10.00;99.90;;;;;;5053303;28;20033;-77
2022/04/18 08:23:50;;;;;;;5.77;2.93;;;10.00;99.90;;;;;;5034193;28;20033;-77
2022/04/18 08:26:19;;;;;;;4.87;3.23;;;10.10;99.90;;;;;;5060496;28;20028;-77
2022/04/18 08:28:45;;;;;;;5.67;3.07;;;10.30;99.90;;;;;;5063428;28;20082;-75
2022/04/18 08:31:11;;;;;;;6.10;3.70;;;10.40;99.90;;;;;;5053855;28;20025;-77
2022/04/18 08:33:36;;;;;;;5.10;2.90;;;10.60;99.50;;;;;;5059902;28;20067;-81
2022/04/18 08:36:03;;;;;;;7.47;3.10;;;10.60;98.90;;;;;;5052391;28;20032;-78
2022/04/18 08:38:28;;;;;;;6.87;3.80;;;10.60;97.90;;;;;;5050873;28;20048;-79
2022/04/18 08:41:00;;;;;;;5.87;3.07;;;10.60;96.50;;;;;;5032096;28;20037;-79
2022/04/18 08:43:26;;;;;;;4.43;2.77;;;10.60;96.70;;;;;;5040943;28;20037;-81
2022/04/18 08:45:52;;;;;;;4.87;2.40;;;10.60;95.70;;;;;;5048376;28;20033;-66
2022/04/18 08:53:47;;;;;;;5.73;2.80;;;10.70;96.70;;;;;;5074902;28;20438;-80
2022/04/18 08:56:13;;;;;;;4.47;2.73;;;11.00;95.90;;;;;;5072564;28;20494;-79
2022/04/18 08:58:40;;;;;;;4.07;2.77;;;11.10;94.40;;;;;;5086910;28;20395;-80
2022/04/18 09:01:06;;;;;;;3.23;2.40;;;11.20;95.50;;;;;;5086764;28;20028;-76
2022/04/18 09:03:32;;;;;;;4.50;3.00;;;11.30;94.50;;;;;;5087318;28;20020;-77
2022/04/18 09:06:10;;;;;;;4.50;2.60;;;11.30;95.20;;;;;;5089766;28;20483;-78
2022/04/18 09:08:51;;;;;;;4.53;3.00;;;11.30;94.60;;;;;;5084536;28;20028;-79
2022/04/18 09:11:31;;;;;;;3.63;2.53;;;11.60;94.80;;;;;;5083814;28;20040;-78
2022/04/18 09:14:07;;;;;;;8.37;3.07;;;11.90;93.90;;;;;;5088624;28;20048;-78
2022/04/18 09:16:34;;;;;;;4.30;2.63;;;12.40;93.10;;;;;;5088230;28;20035;-78
2022/04/18 09:19:09;;;;;;;5.88;2.60;;;12.60;92.20;;;;;;5086396;28;20034;-80
2022/04/18 09:21:42;;;;;;;4.53;2.40;;;12.70;91.10;;;;;;5087743;28;20549;-79
2022/04/18 09:24:31;;;;;;;4.13;2.53;;;13.10;88.40;;;;;;5076746;28;20056;-79
2022/04/18 09:27:12;;;;;;;4.22;2.42;;;13.30;89.00;;;;;;5093290;28;20062;-76
2022/04/18 09:29:40;;;;;;;3.75;2.30;;;13.40;85.00;;;;;;5093659;28;20120;-77
2022/04/18 09:32:11;;;;;;;4.80;2.10;;;13.40;83.60;;;;;;5092643;28;20024;-75
2022/04/18 09:34:38;;;;;;;3.85;2.28;;;13.50;85.80;;;;;;5074897;28;20634;-75
2022/04/18 09:37:14;;;;;;;4.97;2.42;;;13.80;84.40;;;;;;5093800;28;20431;-75
2022/04/18 09:39:50;;;;;;;3.83;2.38;;;13.90;82.90;;;;;;5084080;28;20029;-78
2022/04/18 09:42:15;;;;;;;3.85;2.35;;;13.90;82.50;;;;;;5074814;28;20035;-75
2022/04/18 09:44:41;;;;;;;3.38;2.00;;;14.00;82.50;;;;;;5072890;28;20032;-74
2022/04/18 09:47:07;;;;;;;6.15;2.15;;;14.30;78.50;;;;;;5067348;28;20101;-77
2022/04/18 09:49:36;;;;;;;3.28;2.00;;;14.30;76.00;;;;;;5070741;28;20063;-75
2022/04/18 09:52:02;;;;;;;3.33;2.10;;;14.20;75.30;;;;;;5074305;28;20035;-75
2022/04/18 09:54:31;;;;;;;3.90;2.47;;;14.40;75.90;;;;;;5056400;28;20025;-75
2022/04/18 09:57:07;;;;;;;5.45;2.42;;;14.40;75.30;;;;;;5061282;28;20036;-76
2022/04/18 09:59:33;;;;;;;2.92;2.15;;;14.50;74.70;;;;;;5074363;28;20032;-76
2022/04/18 10:02:00;;;;;;;9.43;5.93;;;14.20;73.30;;;;;;5066214;28;20024;-76
2022/04/18 10:04:26;;;;;;;5.47;3.35;;;14.90;74.20;;;;;;5058538;28;20433;-76
2022/04/18 10:06:59;;;;;;;7.25;3.05;;;14.80;72.70;;;;;;5066632;28;20066;-78
2022/04/18 10:09:24;;;;;;;4.72;2.97;;;14.90;72.70;;;;;;5066419;28;20487;-75
2022/04/18 10:11:52;;;;;;;5.22;2.88;;;15.10;76.80;;;;;;5054041;28;20061;-77
2022/04/18 10:14:18;;;;;;;3.65;2.85;;;15.30;72.40;;;;;;5051548;28;20024;-76
2022/04/18 10:16:45;;;;;;;8.00;4.60;;;15.50;73.30;;;;;;5074059;28;20036;-77
2022/04/18 10:19:31;;;;;;;4.13;2.20;;;15.90;70.30;;;;;;5056212;28;20127;-77
2022/04/18 10:22:20;;;;;;;3.58;2.15;;;15.60;66.90;;;;;;5061055;28;20466;-77
2022/04/18 10:25:42;;;;;;;4.15;2.50;;;15.90;70.30;;;;;;5053970;28;20099;-76
2022/04/18 10:28:16;;;;;;;3.45;2.20;;;16.40;67.60;;;;;;4998920;28;20083;-76
2022/04/18 10:30:53;;;;;;;3.10;2.30;;;16.70;65.50;;;;;;5056513;28;20485;-79
2022/04/18 10:33:19;;;;;;;3.17;2.28;;;16.70;63.10;;;;;;5052158;28;20033;-79
2022/04/18 10:36:04;;;;;;;6.93;2.10;;;16.80;62.50;;;;;;5064295;28;20097;-79
2022/04/18 10:38:31;;;;;;;;;;;16.70;60.20;;;;;;5061371;28;20027;-79
2022/04/18 10:41:15;;;;;;;5.10;2.03;;;16.30;60.90;;;;;;5066174;28;20361;-86
2022/04/18 10:44:01;;;;;;;3.95;2.10;;;16.50;62.10;;;;;;5062430;28;20029;-85
2022/04/18 10:46:27;;;;;;;3.40;2.25;;;16.40;60.30;;;;;;5053189;28;20044;-85
2022/04/18 10:49:04;;;;;;;5.97;2.08;;;16.50;63.30;;;;;;5056430;28;20040;-78
2022/04/18 10:51:30;;;;;;;5.35;2.22;;;16.30;61.30;;;;;;5063162;28;20017;-77
2022/04/18 10:54:11;;;;;;;4.47;2.30;;;16.80;58.80;;;;;;5046461;28;20473;-84
2022/04/18 10:56:56;;;;;;;3.28;2.20;;;16.90;60.20;;;;;;5050482;28;20170;-83
2022/04/18 10:59:28;;;;;;;3.05;2.10;;;16.70;58.70;;;;;;5041565;28;20032;-84
2022/04/18 11:01:57;;;;;;;4.35;2.10;;;16.60;60.10;;;;;;5054416;28;20064;-84
2022/04/18 11:04:25;;;;;;;4.85;2.35;;;16.50;59.60;;;;;;5039921;28;20033;-83
2022/04/18 11:07:00;;;;;;;4.68;2.17;;;16.30;60.90;;;;;;5072260;28;20040;-84
2022/04/18 11:09:27;;;;;;;4.63;2.47;;;16.60;62.20;;;;;;5070891;28;20025;-84
2022/04/18 11:12:12;;;;;;;6.10;4.63;;;16.40;59.10;;;;;;5050914;28;20067;-84
2022/04/18 11:14:38;;;;;;;5.20;4.32;;;16.40;55.40;;;;;;5053269;28;20039;-84
2022/04/18 11:17:06;;;;;;;5.57;2.70;;;16.20;56.40;;;;;;5051936;28;20029;-84
2022/04/18 11:19:36;;;;;;;4.75;2.50;;;16.30;58.40;;;;;;5051808;28;20039;-84
2022/04/18 11:22:18;;;;;;;2.97;2.03;;;16.40;55.40;;;;;;5052085;28;20025;-84
2022/04/18 11:24:55;;;;;;;3.80;1.60;;;16.40;55.90;;;;;;5050685;28;20382;-84
2022/04/18 11:27:27;;;;;;;3.83;2.30;;;16.50;58.90;;;;;;5051549;28;20044;-83
2022/04/18 11:29:55;;;;;;;4.40;1.90;;;16.60;59.20;;;;;;5053455;28;20037;-84
2022/04/18 11:32:24;;;;;;;16.08;2.53;;;16.20;56.60;;;;;;5064926;28;20032;-67
2022/04/18 11:34:52;;;;;;;3.83;1.95;;;16.20;58.60;;;;;;5062357;28;20082;-66
2022/04/18 11:37:29;;;;;;;2.72;1.60;;;16.40;55.70;;;;;;5053646;28;20017;-67
2022/04/18 11:39:57;;;;;;;3.17;1.90;;;16.30;56.70;;;;;;5053845;28;20028;-68
2022/04/18 11:42:29;;;;;;;5.13;2.10;;;16.80;55.10;;;;;;5053210;28;20112;-68
2022/04/18 11:44:57;;;;;;;3.40;1.67;;;17.10;54.30;;;;;;5052957;28;20476;-68
2022/04/18 11:47:33;;;;;;;2.83;2.13;;;16.70;53.00;;;;;;5057949;28;20401;-68
2022/04/18 11:50:01;;;;;;;4.80;2.40;;;17.40;55.10;;;;;;5054152;28;20036;-71
2022/04/18 11:52:38;;;;;;;5.30;1.83;;;17.10;54.70;;;;;;5053786;28;20051;-68
2022/04/18 11:55:15;;;;;;;3.20;2.00;;;17.30;53.40;;;;;;5073027;28;20452;-70
2022/04/18 11:57:48;;;;;;;6.32;2.17;;;17.40;54.00;;;;;;5063103;28;20028;-65
2022/04/18 12:00:15;;;;;;;4.20;2.30;;;17.30;54.00;;;;;;5067046;28;20098;-67
2022/04/18 12:08:18;;;;;;;3.63;1.80;;;17.40;55.70;;;;;;5047150;28;20036;-66
2022/04/18 12:10:45;;;;;;;4.93;2.05;;;17.50;53.00;;;;;;5028929;28;20796;-70
2022/04/18 12:13:13;;;;;;;4.55;2.13;;;17.50;54.80;;;;;;5047014;28;20025;-68
2022/04/18 12:15:40;;;;;;;5.65;2.05;;;17.50;53.30;;;;;;5049703;28;20080;-68
2022/04/18 12:18:11;;;;;;;3.53;2.05;;;17.10;52.40;;;;;;5047071;28;20095;-69
2022/04/18 12:20:50;;;;;;;3.55;1.70;;;17.40;54.40;;;;;;5046842;28;20424;-68
2022/04/18 12:23:20;;;;;;;3.95;1.70;;;17.70;54.10;;;;;;5046311;28;20033;-68
2022/04/18 12:25:48;;;;;;;2.63;1.67;;;17.60;54.60;;;;;;5046098;28;20059;-68
2022/04/18 12:28:15;;;;;;;2.30;1.90;;;17.90;49.40;;;;;;5047038;28;20024;-68
2022/04/18 12:30:41;;;;;;;4.18;1.90;;;17.90;50.20;;;;;;5061517;28;20139;-68
2022/04/18 12:33:24;;;;;;;2.58;1.90;;;17.80;52.60;;;;;;5054832;28;20098;-68
2022/04/18 12:35:54;;;;;;;3.40;1.50;;;17.80;50.30;;;;;;5057555;28;20148;-68
2022/04/18 12:38:35;;;;;;;3.88;1.90;;;17.50;51.20;;;;;;5066583;28;20067;-69
2022/04/18 12:41:02;;;;;;;2.97;1.80;;;17.60;48.20;;;;;;5057840;28;20028;-69
2022/04/18 12:43:34;;;;;;;5.47;2.83;;;17.80;49.60;;;;;;5052911;28;20124;-66
2022/04/18 12:46:09;;;;;;;2.65;1.60;;;17.70;50.90;;;;;;5065508;28;20042;-66
2022/04/18 12:48:37;;;;;;;2.47;1.80;;;18.10;47.80;;;;;;5064680;28;20064;-72
2022/04/18 12:51:07;;;;;;;3.55;2.10;;;18.20;50.30;;;;;;5059225;28;20055;-67
2022/04/18 12:53:51;;;;;;;5.50;2.10;;;18.20;50.20;;;;;;5054312;28;20477;-66
2022/04/18 12:56:22;;;;;;;3.20;1.90;;;18.30;49.40;;;;;;5052810;28;20033;-74
2022/04/18 12:59:09;;;;;;;3.20;2.00;;;18.60;49.20;;;;;;5052858;28;20024;-66
2022/04/18 13:01:39;;;;;;;3.50;2.17;;;18.50;50.80;;;;;;5052421;28;20094;-67
2022/04/18 13:04:22;;;;;;;2.28;1.50;;;18.70;48.20;;;;;;5052701;28;20025;-67
2022/04/18 13:07:03;;;;;;;3.00;1.90;;;18.30;48.00;;;;;;5053295;28;20036;-66
2022/04/18 13:09:29;;;;;;;2.95;1.83;;;18.20;49.10;;;;;;5067115;28;20135;-65
2022/04/18 13:12:05;;;;;;;2.88;1.95;;;17.80;49.30;;;;;;5072897;28;20048;-66
2022/04/18 13:14:31;;;;;;;4.95;2.03;;;17.90;50.70;;;;;;5068568;28;20070;-67
2022/04/18 13:17:10;;;;;;;3.35;2.17;;;17.50;52.80;;;;;;5052671;28;20646;-67